sensor_id;sensor_type;location;lat;lon;timestamp;P1;durP1;ratioP1;P2;durP2;ratioP2
77872;SDS011;67068;52.116;4.440;2023-03-31T00:00:34;11.87;;;2.00;;
77872;SDS011;67068;52.116;4.440;2023-03-31T00:02:59;8.37;;;1.67;;
77872;SDS011;67068;52.116;4.440;2023-03-31T00:05:24;9.63;;;1.90;;
77872;SDS011;67068;52.116;4.440;2023-03-31T00:07:53;11.27;;;1.73;;
77872;SDS011;67068;52.116;4.440;2023-03-31T00:10:19;8.32;;;1.90;;
77872;SDS011;67068;52.116;4.440;2023-03-31T00:12:44;8.23;;;1.85;;
77872;SDS011;67068;52.116;4.440;2023-03-31T00:15:10;8.20;;;1.63;;
77872;SDS011;67068;52.116;4.440;2023-03-31T00:17:35;8.43;;;1.30;;
77872;SDS011;67068;52.116;4.440;2023-03-31T00:20:00;9.13;;;1.77;;
77872;SDS011;67068;52.116;4.440;2023-03-31T00:22:36;9.77;;;1.63;;
77872;SDS011;67068;52.116;4.440;2023-03-31T00:25:02;7.18;;;1.65;;
77872;SDS011;67068;52.116;4.440;2023-03-31T00:27:28;9.32;;;1.70;;
77872;SDS011;67068;52.116;4.440;2023-03-31T00:29:53;9.00;;;1.50;;
77872;SDS011;67068;52.116;4.440;2023-03-31T00:32:18;7.83;;;1.77;;
77872;SDS011;67068;52.116;4.440;2023-03-31T00:34:44;9.20;;;1.77;;
77872;SDS011;67068;52.116;4.440;2023-03-31T00:37:10;8.93;;;1.60;;
77872;SDS011;67068;52.116;4.440;2023-03-31T00:39:40;9.18;;;1.80;;
77872;SDS011;67068;52.116;4.440;2023-03-31T00:42:05;9.00;;;1.58;;
77872;SDS011;67068;52.116;4.440;2023-03-31T00:44:34;7.25;;;1.23;;
77872;SDS011;67068;52.116;4.440;2023-03-31T00:47:04;9.65;;;1.80;;
77872;SDS011;67068;52.116;4.440;2023-03-31T00:54:53;8.20;;;1.67;;
77872;SDS011;67068;52.116;4.440;2023-03-31T00:57:20;9.68;;;1.70;;
77872;SDS011;67068;52.116;4.440;2023-03-31T00:59:50;8.68;;;1.77;;
77872;SDS011;67068;52.116;4.440;2023-03-31T01:02:17;8.70;;;1.35;;
77872;SDS011;67068;52.116;4.440;2023-03-31T01:04:49;7.57;;;1.15;;
77872;SDS011;67068;52.116;4.440;2023-03-31T01:07:23;9.20;;;1.67;;
77872;SDS011;67068;52.116;4.440;2023-03-31T01:09:49;9.10;;;1.67;;
77872;SDS011;67068;52.116;4.440;2023-03-31T01:12:18;5.75;;;1.23;;
77872;SDS011;67068;52.116;4.440;2023-03-31T01:14:44;8.63;;;1.63;;
77872;SDS011;67068;52.116;4.440;2023-03-31T01:17:09;10.90;;;1.97;;
77872;SDS011;67068;52.116;4.440;2023-03-31T01:19:39;7.00;;;1.37;;
77872;SDS011;67068;52.116;4.440;2023-03-31T01:23:07;7.75;;;1.40;;
77872;SDS011;67068;52.116;4.440;2023-03-31T01:35:30;9.23;;;1.55;;
77872;SDS011;67068;52.116;4.440;2023-03-31T01:41:04;8.65;;;1.42;;
77872;SDS011;67068;52.116;4.440;2023-03-31T01:48:40;7.90;;;1.50;;
77872;SDS011;67068;52.116;4.440;2023-03-31T01:54:35;6.85;;;1.05;;
77872;SDS011;67068;52.116;4.440;2023-03-31T01:56:36;6.32;;;1.38;;
77872;SDS011;67068;52.116;4.440;2023-03-31T02:01:32;8.37;;;1.30;;
77872;SDS011;67068;52.116;4.440;2023-03-31T02:04:03;6.72;;;1.30;;
77872;SDS011;67068;52.116;4.440;2023-03-31T02:06:32;9.35;;;1.48;;
77872;SDS011;67068;52.116;4.440;2023-03-31T02:09:03;7.72;;;1.40;;
77872;SDS011;67068;52.116;4.440;2023-03-31T02:11:30;6.32;;;1.40;;
77872;SDS011;67068;52.116;4.440;2023-03-31T02:13:56;6.97;;;1.23;;
77872;SDS011;67068;52.116;4.440;2023-03-31T02:16:26;7.65;;;1.20;;
77872;SDS011;67068;52.116;4.440;2023-03-31T02:18:54;7.93;;;1.40;;
77872;SDS011;67068;52.116;4.440;2023-03-31T02:21:30;7.13;;;1.38;;
77872;SDS011;67068;52.116;4.440;2023-03-31T02:23:55;9.30;;;1.30;;
77872;SDS011;67068;52.116;4.440;2023-03-31T02:26:23;5.77;;;1.23;;
77872;SDS011;67068;52.116;4.440;2023-03-31T02:28:49;8.82;;;1.50;;
77872;SDS011;67068;52.116;4.440;2023-03-31T02:33:45;7.13;;;1.20;;
77872;SDS011;67068;52.116;4.440;2023-03-31T02:36:11;7.53;;;1.48;;
77872;SDS011;67068;52.116;4.440;2023-03-31T02:38:38;7.63;;;1.57;;
77872;SDS011;67068;52.116;4.440;2023-03-31T02:41:05;6.88;;;1.25;;
77872;SDS011;67068;52.116;4.440;2023-03-31T02:43:30;6.05;;;1.30;;
77872;SDS011;67068;52.116;4.440;2023-03-31T02:45:55;6.80;;;1.30;;
77872;SDS011;67068;52.116;4.440;2023-03-31T02:48:25;6.07;;;1.30;;
77872;SDS011;67068;52.116;4.440;2023-03-31T02:56:10;5.40;;;1.10;;
77872;SDS011;67068;52.116;4.440;2023-03-31T02:58:59;5.93;;;1.13;;
77872;SDS011;67068;52.116;4.440;2023-03-31T03:09:30;6.10;;;1.23;;
77872;SDS011;67068;52.116;4.440;2023-03-31T03:14:42;6.93;;;1.50;;
77872;SDS011;67068;52.116;4.440;2023-03-31T03:17:13;6.93;;;1.05;;
77872;SDS011;67068;52.116;4.440;2023-03-31T03:19:40;5.45;;;0.73;;
77872;SDS011;67068;52.116;4.440;2023-03-31T03:22:06;5.13;;;1.00;;
77872;SDS011;67068;52.116;4.440;2023-03-31T03:24:31;5.60;;;0.88;;
77872;SDS011;67068;52.116;4.440;2023-03-31T03:26:58;6.85;;;1.35;;
77872;SDS011;67068;52.116;4.440;2023-03-31T03:29:23;7.07;;;1.35;;
77872;SDS011;67068;52.116;4.440;2023-03-31T03:31:49;6.87;;;1.47;;
77872;SDS011;67068;52.116;4.440;2023-03-31T03:34:14;7.07;;;1.15;;
77872;SDS011;67068;52.116;4.440;2023-03-31T03:36:40;5.78;;;1.13;;
77872;SDS011;67068;52.116;4.440;2023-03-31T03:39:06;8.97;;;1.60;;
77872;SDS011;67068;52.116;4.440;2023-03-31T03:41:31;7.85;;;1.30;;
77872;SDS011;67068;52.116;4.440;2023-03-31T03:43:57;8.07;;;1.50;;
77872;SDS011;67068;52.116;4.440;2023-03-31T03:46:22;6.88;;;1.30;;
77872;SDS011;67068;52.116;4.440;2023-03-31T03:48:48;6.00;;;1.20;;
77872;SDS011;67068;52.116;4.440;2023-03-31T03:51:13;6.43;;;1.10;;
77872;SDS011;67068;52.116;4.440;2023-03-31T03:53:38;5.13;;;0.90;;
77872;SDS011;67068;52.116;4.440;2023-03-31T03:56:03;5.57;;;1.50;;
77872;SDS011;67068;52.116;4.440;2023-03-31T03:58:28;5.70;;;1.20;;
77872;SDS011;67068;52.116;4.440;2023-03-31T04:00:54;6.57;;;1.10;;
77872;SDS011;67068;52.116;4.440;2023-03-31T04:03:20;6.38;;;0.98;;
77872;SDS011;67068;52.116;4.440;2023-03-31T04:05:46;6.40;;;1.20;;
77872;SDS011;67068;52.116;4.440;2023-03-31T04:08:13;5.60;;;1.23;;
77872;SDS011;67068;52.116;4.440;2023-03-31T04:10:42;6.73;;;1.10;;
77872;SDS011;67068;52.116;4.440;2023-03-31T04:13:07;7.15;;;1.30;;
77872;SDS011;67068;52.116;4.440;2023-03-31T04:15:33;6.80;;;1.13;;
77872;SDS011;67068;52.116;4.440;2023-03-31T04:17:58;5.13;;;0.90;;
77872;SDS011;67068;52.116;4.440;2023-03-31T04:20:23;5.90;;;0.97;;
77872;SDS011;67068;52.116;4.440;2023-03-31T04:22:51;4.65;;;1.10;;
77872;SDS011;67068;52.116;4.440;2023-03-31T04:25:17;6.10;;;1.13;;
77872;SDS011;67068;52.116;4.440;2023-03-31T04:27:42;5.83;;;1.00;;
77872;SDS011;67068;52.116;4.440;2023-03-31T04:30:14;6.07;;;0.90;;
77872;SDS011;67068;52.116;4.440;2023-03-31T04:32:46;4.00;;;0.93;;
77872;SDS011;67068;52.116;4.440;2023-03-31T04:35:14;3.75;;;0.95;;
77872;SDS011;67068;52.116;4.440;2023-03-31T04:37:41;5.72;;;1.27;;
77872;SDS011;67068;52.116;4.440;2023-03-31T04:40:07;5.30;;;1.07;;
77872;SDS011;67068;52.116;4.440;2023-03-31T04:42:33;6.88;;;1.20;;
77872;SDS011;67068;52.116;4.440;2023-03-31T04:44:58;5.07;;;0.90;;
77872;SDS011;67068;52.116;4.440;2023-03-31T04:47:23;5.00;;;0.83;;
77872;SDS011;67068;52.116;4.440;2023-03-31T04:49:48;7.07;;;1.50;;
77872;SDS011;67068;52.116;4.440;2023-03-31T04:52:14;5.28;;;1.00;;
77872;SDS011;67068;52.116;4.440;2023-03-31T04:54:39;5.07;;;1.02;;
77872;SDS011;67068;52.116;4.440;2023-03-31T04:57:04;6.00;;;0.93;;
77872;SDS011;67068;52.116;4.440;2023-03-31T04:59:30;5.40;;;0.90;;
77872;SDS011;67068;52.116;4.440;2023-03-31T05:01:55;5.80;;;0.90;;
77872;SDS011;67068;52.116;4.440;2023-03-31T05:04:20;5.18;;;1.23;;
77872;SDS011;67068;52.116;4.440;2023-03-31T05:06:46;4.80;;;0.90;;
77872;SDS011;67068;52.116;4.440;2023-03-31T05:09:11;6.50;;;1.07;;
77872;SDS011;67068;52.116;4.440;2023-03-31T05:11:36;4.43;;;0.70;;
77872;SDS011;67068;52.116;4.440;2023-03-31T05:14:02;7.43;;;1.50;;
77872;SDS011;67068;52.116;4.440;2023-03-31T05:16:27;3.25;;;0.85;;
77872;SDS011;67068;52.116;4.440;2023-03-31T05:18:53;6.47;;;0.90;;
77872;SDS011;67068;52.116;4.440;2023-03-31T05:21:18;4.80;;;1.20;;
77872;SDS011;67068;52.116;4.440;2023-03-31T05:23:44;5.00;;;1.00;;
77872;SDS011;67068;52.116;4.440;2023-03-31T05:26:10;4.43;;;0.93;;
77872;SDS011;67068;52.116;4.440;2023-03-31T05:28:36;4.57;;;1.00;;
77872;SDS011;67068;52.116;4.440;2023-03-31T05:31:01;4.20;;;0.80;;
77872;SDS011;67068;52.116;4.440;2023-03-31T05:33:27;5.25;;;0.95;;
77872;SDS011;67068;52.116;4.440;2023-03-31T05:35:53;5.95;;;1.10;;
77872;SDS011;67068;52.116;4.440;2023-03-31T05:38:18;4.55;;;0.80;;
77872;SDS011;67068;52.116;4.440;2023-03-31T05:40:43;2.60;;;0.80;;
77872;SDS011;67068;52.116;4.440;2023-03-31T05:43:08;5.17;;;1.00;;
77872;SDS011;67068;52.116;4.440;2023-03-31T05:45:34;5.03;;;0.90;;
77872;SDS011;67068;52.116;4.440;2023-03-31T05:47:59;5.05;;;1.00;;
77872;SDS011;67068;52.116;4.440;2023-03-31T05:50:25;4.63;;;0.90;;
77872;SDS011;67068;52.116;4.440;2023-03-31T05:52:51;7.03;;;1.45;;
77872;SDS011;67068;52.116;4.440;2023-03-31T05:55:16;4.53;;;0.87;;
77872;SDS011;67068;52.116;4.440;2023-03-31T05:57:42;3.30;;;0.70;;
77872;SDS011;67068;52.116;4.440;2023-03-31T06:00:07;5.03;;;1.03;;
77872;SDS011;67068;52.116;4.440;2023-03-31T06:02:35;4.15;;;0.70;;
77872;SDS011;67068;52.116;4.440;2023-03-31T06:05:00;4.70;;;1.07;;
77872;SDS011;67068;52.116;4.440;2023-03-31T06:07:25;4.40;;;0.82;;
77872;SDS011;67068;52.116;4.440;2023-03-31T06:09:51;5.67;;;1.00;;
77872;SDS011;67068;52.116;4.440;2023-03-31T06:12:16;3.90;;;0.90;;
77872;SDS011;67068;52.116;4.440;2023-03-31T06:14:41;6.53;;;1.10;;
77872;SDS011;67068;52.116;4.440;2023-03-31T06:17:07;6.27;;;1.20;;
77872;SDS011;67068;52.116;4.440;2023-03-31T06:19:32;3.40;;;1.13;;
77872;SDS011;67068;52.116;4.440;2023-03-31T06:21:57;5.63;;;0.90;;
77872;SDS011;67068;52.116;4.440;2023-03-31T06:24:22;4.27;;;0.90;;
77872;SDS011;67068;52.116;4.440;2023-03-31T06:26:47;4.13;;;0.70;;
77872;SDS011;67068;52.116;4.440;2023-03-31T06:29:13;4.63;;;1.17;;
77872;SDS011;67068;52.116;4.440;2023-03-31T06:31:38;4.17;;;1.40;;
77872;SDS011;67068;52.116;4.440;2023-03-31T06:34:03;4.03;;;1.07;;
77872;SDS011;67068;52.116;4.440;2023-03-31T06:36:28;4.00;;;0.90;;
77872;SDS011;67068;52.116;4.440;2023-03-31T06:38:54;4.95;;;0.90;;
77872;SDS011;67068;52.116;4.440;2023-03-31T06:41:19;4.37;;;0.80;;
77872;SDS011;67068;52.116;4.440;2023-03-31T06:43:46;3.30;;;0.60;;
77872;SDS011;67068;52.116;4.440;2023-03-31T06:46:11;3.33;;;0.70;;
77872;SDS011;67068;52.116;4.440;2023-03-31T06:48:36;4.75;;;0.70;;
77872;SDS011;67068;52.116;4.440;2023-03-31T06:51:02;5.23;;;1.17;;
77872;SDS011;67068;52.116;4.440;2023-03-31T06:53:28;3.92;;;0.73;;
77872;SDS011;67068;52.116;4.440;2023-03-31T06:55:54;4.87;;;1.10;;
77872;SDS011;67068;52.116;4.440;2023-03-31T06:58:19;2.70;;;0.60;;
77872;SDS011;67068;52.116;4.440;2023-03-31T07:00:44;3.70;;;0.60;;
77872;SDS011;67068;52.116;4.440;2023-03-31T07:03:10;4.88;;;0.80;;
77872;SDS011;67068;52.116;4.440;2023-03-31T07:05:36;4.20;;;0.75;;
77872;SDS011;67068;52.116;4.440;2023-03-31T07:08:01;2.97;;;0.65;;
77872;SDS011;67068;52.116;4.440;2023-03-31T07:10:27;4.45;;;0.70;;
77872;SDS011;67068;52.116;4.440;2023-03-31T07:12:53;4.50;;;0.80;;
77872;SDS011;67068;52.116;4.440;2023-03-31T07:15:18;4.70;;;0.67;;
77872;SDS011;67068;52.116;4.440;2023-03-31T07:17:43;5.87;;;0.90;;
77872;SDS011;67068;52.116;4.440;2023-03-31T07:20:09;3.10;;;0.80;;
77872;SDS011;67068;52.116;4.440;2023-03-31T07:22:36;3.85;;;0.80;;
77872;SDS011;67068;52.116;4.440;2023-03-31T07:25:02;2.30;;;0.60;;
77872;SDS011;67068;52.116;4.440;2023-03-31T07:27:27;4.87;;;0.73;;
77872;SDS011;67068;52.116;4.440;2023-03-31T07:29:52;4.07;;;1.00;;
77872;SDS011;67068;52.116;4.440;2023-03-31T07:32:17;2.93;;;1.00;;
77872;SDS011;67068;52.116;4.440;2023-03-31T07:34:43;2.58;;;0.63;;
77872;SDS011;67068;52.116;4.440;2023-03-31T07:37:08;2.53;;;0.60;;
77872;SDS011;67068;52.116;4.440;2023-03-31T07:39:34;4.30;;;0.77;;
77872;SDS011;67068;52.116;4.440;2023-03-31T07:42:00;4.57;;;0.77;;
77872;SDS011;67068;52.116;4.440;2023-03-31T07:44:25;4.27;;;0.60;;
77872;SDS011;67068;52.116;4.440;2023-03-31T07:46:51;4.63;;;0.70;;
77872;SDS011;67068;52.116;4.440;2023-03-31T07:49:16;4.30;;;0.80;;
77872;SDS011;67068;52.116;4.440;2023-03-31T07:51:41;3.43;;;0.83;;
77872;SDS011;67068;52.116;4.440;2023-03-31T07:54:06;5.40;;;1.00;;
77872;SDS011;67068;52.116;4.440;2023-03-31T07:56:32;3.97;;;1.10;;
77872;SDS011;67068;52.116;4.440;2023-03-31T07:58:57;3.55;;;0.98;;
77872;SDS011;67068;52.116;4.440;2023-03-31T08:01:22;4.60;;;0.73;;
77872;SDS011;67068;52.116;4.440;2023-03-31T08:03:49;3.70;;;0.90;;
77872;SDS011;67068;52.116;4.440;2023-03-31T08:06:20;4.05;;;0.98;;
77872;SDS011;67068;52.116;4.440;2023-03-31T08:08:46;3.58;;;0.75;;
77872;SDS011;67068;52.116;4.440;2023-03-31T08:11:12;4.03;;;0.85;;
77872;SDS011;67068;52.116;4.440;2023-03-31T08:13:38;3.10;;;0.93;;
77872;SDS011;67068;52.116;4.440;2023-03-31T08:16:03;3.13;;;0.63;;
77872;SDS011;67068;52.116;4.440;2023-03-31T08:18:28;3.70;;;0.88;;
77872;SDS011;67068;52.116;4.440;2023-03-31T08:20:54;4.72;;;1.05;;
77872;SDS011;67068;52.116;4.440;2023-03-31T08:23:19;4.30;;;1.00;;
77872;SDS011;67068;52.116;4.440;2023-03-31T08:25:44;5.45;;;0.88;;
77872;SDS011;67068;52.116;4.440;2023-03-31T08:28:10;4.83;;;1.17;;
77872;SDS011;67068;52.116;4.440;2023-03-31T08:30:38;3.65;;;0.90;;
77872;SDS011;67068;52.116;4.440;2023-03-31T08:33:03;4.85;;;1.05;;
77872;SDS011;67068;52.116;4.440;2023-03-31T08:35:29;5.45;;;1.10;;
77872;SDS011;67068;52.116;4.440;2023-03-31T08:37:54;4.73;;;0.80;;
77872;SDS011;67068;52.116;4.440;2023-03-31T08:40:21;3.83;;;1.05;;
77872;SDS011;67068;52.116;4.440;2023-03-31T08:42:48;4.85;;;1.13;;
77872;SDS011;67068;52.116;4.440;2023-03-31T08:45:25;4.20;;;0.90;;
77872;SDS011;67068;52.116;4.440;2023-03-31T08:47:56;4.32;;;0.82;;
77872;SDS011;67068;52.116;4.440;2023-03-31T08:50:26;5.97;;;1.10;;
77872;SDS011;67068;52.116;4.440;2023-03-31T08:53:19;4.40;;;0.93;;
77872;SDS011;67068;52.116;4.440;2023-03-31T08:55:42;4.10;;;0.90;;
77872;SDS011;67068;52.116;4.440;2023-03-31T08:58:18;4.93;;;0.90;;
77872;SDS011;67068;52.116;4.440;2023-03-31T09:01:07;5.55;;;1.00;;
77872;SDS011;67068;52.116;4.440;2023-03-31T09:06:23;6.32;;;1.00;;
77872;SDS011;67068;52.116;4.440;2023-03-31T09:08:51;4.97;;;1.33;;
77872;SDS011;67068;52.116;4.440;2023-03-31T09:11:43;5.45;;;1.27;;
77872;SDS011;67068;52.116;4.440;2023-03-31T09:19:14;5.57;;;1.10;;
77872;SDS011;67068;52.116;4.440;2023-03-31T09:24:17;6.07;;;1.17;;
77872;SDS011;67068;52.116;4.440;2023-03-31T09:26:51;6.97;;;1.00;;
77872;SDS011;67068;52.116;4.440;2023-03-31T09:29:27;6.75;;;1.17;;
77872;SDS011;67068;52.116;4.440;2023-03-31T09:31:55;5.45;;;1.23;;
77872;SDS011;67068;52.116;4.440;2023-03-31T09:34:24;7.30;;;1.20;;
77872;SDS011;67068;52.116;4.440;2023-03-31T09:36:51;6.03;;;1.20;;
77872;SDS011;67068;52.116;4.440;2023-03-31T09:39:16;4.85;;;0.80;;
77872;SDS011;67068;52.116;4.440;2023-03-31T09:41:43;4.90;;;1.03;;
77872;SDS011;67068;52.116;4.440;2023-03-31T09:46:46;7.28;;;1.20;;
77872;SDS011;67068;52.116;4.440;2023-03-31T09:49:13;7.20;;;1.10;;
77872;SDS011;67068;52.116;4.440;2023-03-31T09:51:40;5.85;;;1.23;;
77872;SDS011;67068;52.116;4.440;2023-03-31T09:54:09;5.90;;;1.17;;
77872;SDS011;67068;52.116;4.440;2023-03-31T09:59:11;5.40;;;1.23;;
77872;SDS011;67068;52.116;4.440;2023-03-31T10:01:37;5.95;;;1.05;;
77872;SDS011;67068;52.116;4.440;2023-03-31T10:04:02;7.57;;;1.30;;
77872;SDS011;67068;52.116;4.440;2023-03-31T10:06:31;6.63;;;1.40;;
77872;SDS011;67068;52.116;4.440;2023-03-31T10:08:57;6.07;;;1.38;;
77872;SDS011;67068;52.116;4.440;2023-03-31T10:11:23;7.30;;;1.20;;
77872;SDS011;67068;52.116;4.440;2023-03-31T10:16:21;5.88;;;1.13;;
77872;SDS011;67068;52.116;4.440;2023-03-31T10:18:46;6.55;;;1.23;;
77872;SDS011;67068;52.116;4.440;2023-03-31T10:23:46;4.07;;;0.90;;
77872;SDS011;67068;52.116;4.440;2023-03-31T10:26:13;5.40;;;1.23;;
77872;SDS011;67068;52.116;4.440;2023-03-31T10:28:40;5.13;;;1.05;;
77872;SDS011;67068;52.116;4.440;2023-03-31T10:31:06;6.30;;;1.20;;
77872;SDS011;67068;52.116;4.440;2023-03-31T10:33:32;7.40;;;1.45;;
77872;SDS011;67068;52.116;4.440;2023-03-31T10:36:00;8.10;;;1.40;;
77872;SDS011;67068;52.116;4.440;2023-03-31T10:38:28;6.80;;;1.30;;
77872;SDS011;67068;52.116;4.440;2023-03-31T10:40:55;8.00;;;1.58;;
77872;SDS011;67068;52.116;4.440;2023-03-31T10:45:58;6.18;;;1.08;;
77872;SDS011;67068;52.116;4.440;2023-03-31T10:48:31;8.50;;;1.20;;
77872;SDS011;67068;52.116;4.440;2023-03-31T10:51:03;6.53;;;1.40;;
77872;SDS011;67068;52.116;4.440;2023-03-31T10:53:28;7.30;;;1.20;;
77872;SDS011;67068;52.116;4.440;2023-03-31T11:02:05;6.32;;;1.33;;
77872;SDS011;67068;52.116;4.440;2023-03-31T11:06:38;6.55;;;1.23;;
77872;SDS011;67068;52.116;4.440;2023-03-31T11:11:43;6.87;;;1.10;;
77872;SDS011;67068;52.116;4.440;2023-03-31T11:29:31;5.43;;;1.40;;
77872;SDS011;67068;52.116;4.440;2023-03-31T11:32:03;5.28;;;1.15;;
77872;SDS011;67068;52.116;4.440;2023-03-31T11:39:40;6.95;;;1.20;;
77872;SDS011;67068;52.116;4.440;2023-03-31T11:42:17;5.68;;;1.02;;
77872;SDS011;67068;52.116;4.440;2023-03-31T11:44:45;7.97;;;1.50;;
77872;SDS011;67068;52.116;4.440;2023-03-31T11:49:38;7.03;;;1.20;;
77872;SDS011;67068;52.116;4.440;2023-03-31T11:52:06;5.30;;;1.05;;
77872;SDS011;67068;52.116;4.440;2023-03-31T11:57:00;7.03;;;1.35;;
77872;SDS011;67068;52.116;4.440;2023-03-31T11:59:26;5.97;;;0.85;;
77872;SDS011;67068;52.116;4.440;2023-03-31T12:01:56;5.05;;;1.13;;
77872;SDS011;67068;52.116;4.440;2023-03-31T12:04:33;14.23;;;7.45;;
77872;SDS011;67068;52.116;4.440;2023-03-31T12:07:02;144.68;;;86.88;;
77872;SDS011;67068;52.116;4.440;2023-03-31T12:09:37;158.80;;;94.82;;
77872;SDS011;67068;52.116;4.440;2023-03-31T12:12:26;73.07;;;43.28;;
77872;SDS011;67068;52.116;4.440;2023-03-31T12:17:19;60.37;;;35.67;;
77872;SDS011;67068;52.116;4.440;2023-03-31T12:20:11;55.92;;;32.13;;
77872;SDS011;67068;52.116;4.440;2023-03-31T12:22:44;55.42;;;32.75;;
77872;SDS011;67068;52.116;4.440;2023-03-31T12:25:13;56.78;;;33.75;;
77872;SDS011;67068;52.116;4.440;2023-03-31T12:27:42;55.00;;;32.38;;
77872;SDS011;67068;52.116;4.440;2023-03-31T12:32:37;49.70;;;29.90;;
77872;SDS011;67068;52.116;4.440;2023-03-31T12:40:13;52.33;;;30.73;;
77872;SDS011;67068;52.116;4.440;2023-03-31T12:42:48;47.53;;;27.35;;
77872;SDS011;67068;52.116;4.440;2023-03-31T12:45:19;47.92;;;27.17;;
77872;SDS011;67068;52.116;4.440;2023-03-31T12:50:31;43.65;;;26.48;;
77872;SDS011;67068;52.116;4.440;2023-03-31T12:57:53;43.05;;;25.50;;
77872;SDS011;67068;52.116;4.440;2023-03-31T13:00:38;42.63;;;24.67;;
77872;SDS011;67068;52.116;4.440;2023-03-31T13:03:43;40.30;;;23.40;;
77872;SDS011;67068;52.116;4.440;2023-03-31T13:06:57;41.50;;;22.70;;
77872;SDS011;67068;52.116;4.440;2023-03-31T13:16:27;36.17;;;20.38;;
77872;SDS011;67068;52.116;4.440;2023-03-31T13:18:53;36.00;;;19.80;;
77872;SDS011;67068;52.116;4.440;2023-03-31T13:21:18;33.20;;;19.60;;
77872;SDS011;67068;52.116;4.440;2023-03-31T13:23:45;33.67;;;19.58;;
77872;SDS011;67068;52.116;4.440;2023-03-31T13:34:19;33.53;;;17.75;;
77872;SDS011;67068;52.116;4.440;2023-03-31T13:39:44;29.45;;;16.30;;
77872;SDS011;67068;52.116;4.440;2023-03-31T13:52:15;28.67;;;15.07;;
77872;SDS011;67068;52.116;4.440;2023-03-31T13:57:28;25.67;;;13.80;;
77872;SDS011;67068;52.116;4.440;2023-03-31T14:00:02;26.00;;;13.85;;
77872;SDS011;67068;52.116;4.440;2023-03-31T14:10:29;24.75;;;11.75;;
77872;SDS011;67068;52.116;4.440;2023-03-31T14:13:11;25.50;;;11.98;;
77872;SDS011;67068;52.116;4.440;2023-03-31T14:15:38;24.05;;;12.52;;
77872;SDS011;67068;52.116;4.440;2023-03-31T14:18:04;21.80;;;12.15;;
77872;SDS011;67068;52.116;4.440;2023-03-31T14:33:32;23.73;;;11.50;;
77872;SDS011;67068;52.116;4.440;2023-03-31T14:38:26;21.05;;;10.88;;
77872;SDS011;67068;52.116;4.440;2023-03-31T14:40:53;21.90;;;11.20;;
77872;SDS011;67068;52.116;4.440;2023-03-31T14:43:21;19.88;;;10.05;;
77872;SDS011;67068;52.116;4.440;2023-03-31T14:45:47;20.92;;;10.32;;
77872;SDS011;67068;52.116;4.440;2023-03-31T14:48:17;21.30;;;10.70;;
77872;SDS011;67068;52.116;4.440;2023-03-31T14:50:43;19.13;;;9.80;;
77872;SDS011;67068;52.116;4.440;2023-03-31T14:53:16;19.48;;;9.65;;
77872;SDS011;67068;52.116;4.440;2023-03-31T14:55:42;18.75;;;9.85;;
77872;SDS011;67068;52.116;4.440;2023-03-31T14:58:07;19.83;;;10.00;;
77872;SDS011;67068;52.116;4.440;2023-03-31T15:00:35;18.15;;;8.52;;
77872;SDS011;67068;52.116;4.440;2023-03-31T15:03:04;19.35;;;10.00;;
77872;SDS011;67068;52.116;4.440;2023-03-31T15:05:32;18.33;;;9.18;;
77872;SDS011;67068;52.116;4.440;2023-03-31T15:07:59;18.88;;;9.75;;
77872;SDS011;67068;52.116;4.440;2023-03-31T15:10:25;19.33;;;9.55;;
77872;SDS011;67068;52.116;4.440;2023-03-31T15:12:54;16.88;;;8.73;;
77872;SDS011;67068;52.116;4.440;2023-03-31T15:15:19;17.20;;;8.67;;
77872;SDS011;67068;52.116;4.440;2023-03-31T15:17:46;18.98;;;8.40;;
77872;SDS011;67068;52.116;4.440;2023-03-31T15:20:23;17.35;;;8.20;;
77872;SDS011;67068;52.116;4.440;2023-03-31T15:22:49;17.83;;;8.50;;
77872;SDS011;67068;52.116;4.440;2023-03-31T15:25:14;18.07;;;8.33;;
77872;SDS011;67068;52.116;4.440;2023-03-31T15:27:46;17.33;;;7.90;;
77872;SDS011;67068;52.116;4.440;2023-03-31T15:30:14;17.60;;;8.68;;
77872;SDS011;67068;52.116;4.440;2023-03-31T15:32:41;17.60;;;8.07;;
77872;SDS011;67068;52.116;4.440;2023-03-31T15:35:06;14.95;;;7.57;;
77872;SDS011;67068;52.116;4.440;2023-03-31T15:37:41;15.95;;;7.10;;
77872;SDS011;67068;52.116;4.440;2023-03-31T15:40:26;17.00;;;7.63;;
77872;SDS011;67068;52.116;4.440;2023-03-31T15:42:53;14.63;;;6.95;;
77872;SDS011;67068;52.116;4.440;2023-03-31T15:47:47;15.10;;;7.03;;
77872;SDS011;67068;52.116;4.440;2023-03-31T15:52:38;17.20;;;6.10;;
77872;SDS011;67068;52.116;4.440;2023-03-31T15:57:56;13.15;;;6.13;;
77872;SDS011;67068;52.116;4.440;2023-03-31T16:03:15;14.05;;;5.38;;
77872;SDS011;67068;52.116;4.440;2023-03-31T16:05:54;13.60;;;5.32;;
77872;SDS011;67068;52.116;4.440;2023-03-31T16:08:24;12.15;;;5.38;;
77872;SDS011;67068;52.116;4.440;2023-03-31T16:10:54;13.48;;;5.18;;
77872;SDS011;67068;52.116;4.440;2023-03-31T16:13:20;14.20;;;5.68;;
77872;SDS011;67068;52.116;4.440;2023-03-31T16:15:50;15.43;;;6.22;;
77872;SDS011;67068;52.116;4.440;2023-03-31T16:18:17;13.80;;;5.07;;
77872;SDS011;67068;52.116;4.440;2023-03-31T16:20:52;13.18;;;5.28;;
77872;SDS011;67068;52.116;4.440;2023-03-31T16:23:18;14.00;;;5.28;;
77872;SDS011;67068;52.116;4.440;2023-03-31T16:25:45;13.07;;;4.95;;
77872;SDS011;67068;52.116;4.440;2023-03-31T16:28:12;14.82;;;4.72;;
77872;SDS011;67068;52.116;4.440;2023-03-31T16:30:40;11.80;;;4.97;;
77872;SDS011;67068;52.116;4.440;2023-03-31T16:33:06;14.75;;;5.22;;
77872;SDS011;67068;52.116;4.440;2023-03-31T16:35:33;14.50;;;5.70;;
77872;SDS011;67068;52.116;4.440;2023-03-31T16:37:59;16.48;;;5.30;;
77872;SDS011;67068;52.116;4.440;2023-03-31T16:40:28;14.70;;;5.03;;
77872;SDS011;67068;52.116;4.440;2023-03-31T16:43:10;13.48;;;4.72;;
77872;SDS011;67068;52.116;4.440;2023-03-31T16:45:35;14.00;;;5.47;;
77872;SDS011;67068;52.116;4.440;2023-03-31T16:48:01;13.37;;;5.23;;
77872;SDS011;67068;52.116;4.440;2023-03-31T16:50:26;14.20;;;4.75;;
77872;SDS011;67068;52.116;4.440;2023-03-31T16:52:51;16.33;;;5.47;;
77872;SDS011;67068;52.116;4.440;2023-03-31T16:55:17;13.27;;;4.93;;
77872;SDS011;67068;52.116;4.440;2023-03-31T16:57:42;13.73;;;4.70;;
77872;SDS011;67068;52.116;4.440;2023-03-31T17:00:07;11.60;;;3.87;;
77872;SDS011;67068;52.116;4.440;2023-03-31T17:02:33;14.38;;;5.00;;
77872;SDS011;67068;52.116;4.440;2023-03-31T17:04:58;12.83;;;4.07;;
77872;SDS011;67068;52.116;4.440;2023-03-31T17:07:23;12.73;;;4.33;;
77872;SDS011;67068;52.116;4.440;2023-03-31T17:09:48;11.23;;;3.57;;
77872;SDS011;67068;52.116;4.440;2023-03-31T17:12:14;10.88;;;3.92;;
77872;SDS011;67068;52.116;4.440;2023-03-31T17:14:40;12.27;;;4.28;;
77872;SDS011;67068;52.116;4.440;2023-03-31T17:17:05;12.33;;;4.00;;
77872;SDS011;67068;52.116;4.440;2023-03-31T17:19:30;12.05;;;3.83;;
77872;SDS011;67068;52.116;4.440;2023-03-31T17:21:55;11.83;;;3.43;;
77872;SDS011;67068;52.116;4.440;2023-03-31T17:24:25;10.77;;;3.55;;
77872;SDS011;67068;52.116;4.440;2023-03-31T17:26:51;9.73;;;3.50;;
77872;SDS011;67068;52.116;4.440;2023-03-31T17:29:16;11.10;;;3.27;;
77872;SDS011;67068;52.116;4.440;2023-03-31T17:31:42;11.80;;;3.50;;
77872;SDS011;67068;52.116;4.440;2023-03-31T17:34:07;10.00;;;3.38;;
77872;SDS011;67068;52.116;4.440;2023-03-31T17:36:33;9.07;;;3.22;;
77872;SDS011;67068;52.116;4.440;2023-03-31T17:38:58;9.37;;;3.60;;
77872;SDS011;67068;52.116;4.440;2023-03-31T17:41:24;10.63;;;2.92;;
77872;SDS011;67068;52.116;4.440;2023-03-31T17:43:51;9.27;;;3.22;;
77872;SDS011;67068;52.116;4.440;2023-03-31T17:46:16;9.40;;;3.07;;
77872;SDS011;67068;52.116;4.440;2023-03-31T17:48:42;12.13;;;3.30;;
77872;SDS011;67068;52.116;4.440;2023-03-31T17:51:10;10.93;;;3.58;;
77872;SDS011;67068;52.116;4.440;2023-03-31T17:53:37;8.70;;;2.88;;
77872;SDS011;67068;52.116;4.440;2023-03-31T17:56:04;9.48;;;3.10;;